createdAt,value
2022-08-22T00:01:28.790Z,7.80
2022-08-22T00:02:56.462Z,2.53
2022-08-22T00:03:00.473Z,2.90
2022-08-22T00:04:21.313Z,5.30
2022-08-22T00:07:25.049Z,7.80
2022-08-22T00:10:24.960Z,8.93
2022-08-22T00:13:19.617Z,5.53
2022-08-22T00:16:10.717Z,6.23
2022-08-22T00:19:04.652Z,9.10
2022-08-22T00:21:57.603Z,8.60
2022-08-22T00:24:50.221Z,5.50
2022-08-22T00:27:45.040Z,6.90
2022-08-22T00:30:39.445Z,5.23
2022-08-22T00:33:30.415Z,7.23
2022-08-22T00:36:23.216Z,12.17
2022-08-22T00:39:15.285Z,13.20
2022-08-22T00:42:16.062Z,7.37
2022-08-22T00:45:27.697Z,8.00
2022-08-22T00:48:37.454Z,7.07
2022-08-22T00:51:33.605Z,9.67
2022-08-22T00:54:28.791Z,6.27
2022-08-22T00:57:26.581Z,9.20
2022-08-22T01:00:18.229Z,7.93
2022-08-22T01:03:29.632Z,7.60
2022-08-22T01:06:25.448Z,7.50
2022-08-22T01:09:19.849Z,6.00
2022-08-22T01:12:17.585Z,6.83
2022-08-22T01:15:09.476Z,7.00
2022-08-22T01:18:16.692Z,6.33
2022-08-22T01:21:24.272Z,6.97
2022-08-22T01:25:03.566Z,6.73
2022-08-22T01:28:17.771Z,8.70
2022-08-22T01:31:21.764Z,6.40
2022-08-22T01:34:40.766Z,10.37
2022-08-22T01:37:56.646Z,8.97
2022-08-22T01:41:10.514Z,7.60
2022-08-22T01:44:09.532Z,6.83
2022-08-22T01:47:00.249Z,7.57
2022-08-22T01:49:51.554Z,6.30
2022-08-22T01:52:43.151Z,7.20
2022-08-22T01:55:35.117Z,6.93
2022-08-22T01:58:25.504Z,8.60
2022-08-22T02:01:22.404Z,9.50
2022-08-22T02:04:15.236Z,7.90
2022-08-22T02:07:05.350Z,7.63
2022-08-22T02:10:01.391Z,8.37
2022-08-22T02:12:54.603Z,9.83
2022-08-22T02:15:48.104Z,9.33
2022-08-22T02:18:45.100Z,9.23
2022-08-22T02:21:41.953Z,9.27
2022-08-22T02:24:43.008Z,9.80
2022-08-22T02:27:35.386Z,8.60
2022-08-22T02:30:28.362Z,8.83
2022-08-22T02:33:25.537Z,8.17
2022-08-22T02:36:17.943Z,9.40
2022-08-22T02:39:09.764Z,10.77
2022-08-22T02:42:01.077Z,9.03
2022-08-22T02:44:54.553Z,10.00
2022-08-22T02:47:51.366Z,10.83
2022-08-22T02:50:42.371Z,10.23
2022-08-22T02:53:34.679Z,9.53
2022-08-22T02:56:25.415Z,9.57
2022-08-22T02:59:16.511Z,9.20
2022-08-22T03:02:24.147Z,9.03
2022-08-22T03:05:25.059Z,14.60
2022-08-22T03:08:20.065Z,21.50
2022-08-22T03:11:13.020Z,14.17
2022-08-22T03:14:05.181Z,9.60
2022-08-22T03:16:57.382Z,9.37
2022-08-22T03:19:50.072Z,12.60
2022-08-22T03:22:45.471Z,9.47
2022-08-22T03:25:38.548Z,9.43
2022-08-22T03:28:29.329Z,11.47
2022-08-22T03:31:19.247Z,8.97
2022-08-22T03:34:20.167Z,13.37
2022-08-22T03:37:13.869Z,16.53
2022-08-22T03:40:05.244Z,9.90
2022-08-22T03:43:14.848Z,9.57
2022-08-22T03:46:34.501Z,9.70
2022-08-22T03:49:35.241Z,10.13
2022-08-22T03:52:35.958Z,13.13
2022-08-22T03:55:30.314Z,12.77
2022-08-22T03:58:30.836Z,10.07
2022-08-22T04:01:39.080Z,10.33
2022-08-22T04:04:38.458Z,10.33
2022-08-22T04:07:56.275Z,11.17
2022-08-22T04:11:03.959Z,9.87
2022-08-22T04:14:05.024Z,11.57
2022-08-22T04:17:02.046Z,10.77
2022-08-22T04:19:54.028Z,14.23
2022-08-22T04:23:01.075Z,12.13
2022-08-22T04:25:52.911Z,12.83
2022-08-22T04:28:45.385Z,11.70
2022-08-22T04:31:38.256Z,12.53
2022-08-22T04:34:31.826Z,12.63
2022-08-22T04:37:22.195Z,12.77
2022-08-22T04:40:15.231Z,12.60
2022-08-22T04:43:06.629Z,11.80
2022-08-22T04:45:59.308Z,13.83
2022-08-22T04:48:55.723Z,14.30
2022-08-22T04:51:48.556Z,13.93
2022-08-22T04:54:43.843Z,12.87
2022-08-22T04:57:37.510Z,14.93
2022-08-22T05:00:26.361Z,13.63
2022-08-22T05:03:18.475Z,13.87
2022-08-22T05:06:09.452Z,13.47
2022-08-22T05:09:01.027Z,14.73
2022-08-22T05:11:51.388Z,14.40
2022-08-22T05:14:41.891Z,13.33
2022-08-22T05:17:31.528Z,13.97
2022-08-22T05:20:22.156Z,13.23
2022-08-22T05:23:17.072Z,12.20
2022-08-22T05:26:07.741Z,11.37
2022-08-22T05:28:58.845Z,11.50
2022-08-22T05:31:50.721Z,10.90
2022-08-22T05:34:40.986Z,9.90
2022-08-22T05:37:39.064Z,9.67
2022-08-22T05:40:33.055Z,13.03
2022-08-22T05:43:23.002Z,12.63
2022-08-22T05:46:18.471Z,8.80
2022-08-22T05:49:09.928Z,14.40
2022-08-22T05:52:07.491Z,11.20
2022-08-22T05:55:23.042Z,8.70
2022-08-22T05:58:21.225Z,11.40
2022-08-22T06:01:19.082Z,11.27
2022-08-22T06:04:10.137Z,12.37
2022-08-22T06:07:02.447Z,9.03
2022-08-22T06:10:10.404Z,10.67
2022-08-22T06:13:02.698Z,11.03
2022-08-22T06:15:55.932Z,9.63
2022-08-22T06:18:45.882Z,11.00
2022-08-22T06:21:40.946Z,9.40
2022-08-22T06:24:30.327Z,9.33
2022-08-22T06:27:23.868Z,7.47
2022-08-22T06:30:15.156Z,7.93
2022-08-22T06:33:08.459Z,8.70
2022-08-22T06:36:21.323Z,7.57
2022-08-22T06:39:14.622Z,7.27
2022-08-22T06:42:05.766Z,7.00
2022-08-22T06:44:57.352Z,6.97
2022-08-22T06:47:49.866Z,10.40
2022-08-22T06:50:42.624Z,12.23
2022-08-22T06:53:36.580Z,7.10
2022-08-22T06:56:26.987Z,7.53
2022-08-22T06:59:18.849Z,8.80
2022-08-22T07:02:12.388Z,7.77
2022-08-22T07:05:01.508Z,6.83
2022-08-22T07:07:53.646Z,8.93
2022-08-22T07:10:43.460Z,5.97
2022-08-22T07:13:34.056Z,9.38
2022-08-22T07:16:29.809Z,12.35
2022-08-22T07:19:24.558Z,7.22
2022-08-22T07:22:15.523Z,10.13
2022-08-22T07:25:08.694Z,6.13
2022-08-22T07:28:15.852Z,7.90
2022-08-22T07:31:18.660Z,8.75
2022-08-22T07:34:29.100Z,9.70
2022-08-22T07:37:21.971Z,7.05
2022-08-22T07:40:17.755Z,7.43
2022-08-22T07:43:11.463Z,7.40
2022-08-22T07:46:02.052Z,7.27
2022-08-22T07:49:08.490Z,5.83
2022-08-22T07:51:59.907Z,5.70
2022-08-22T07:54:50.319Z,11.00
2022-08-22T07:57:42.562Z,7.90
2022-08-22T08:00:32.588Z,7.67
2022-08-22T08:03:23.451Z,7.07
2022-08-22T08:06:13.179Z,9.27
2022-08-22T08:09:02.922Z,6.37
2022-08-22T08:11:55.988Z,6.07
2022-08-22T08:14:52.771Z,7.97
2022-08-22T08:17:42.118Z,8.15
2022-08-22T08:20:31.515Z,8.50
2022-08-22T08:23:23.862Z,8.32
2022-08-22T08:26:15.818Z,7.95
2022-08-22T08:29:04.690Z,8.27
2022-08-22T08:31:55.030Z,7.28
2022-08-22T08:34:45.067Z,7.15
2022-08-22T08:37:38.236Z,8.05
2022-08-22T08:40:39.684Z,9.25
2022-08-22T08:43:34.256Z,12.27
2022-08-22T08:46:38.727Z,10.07
2022-08-22T08:49:46.318Z,12.65
2022-08-22T08:52:58.418Z,9.80
2022-08-22T08:55:51.337Z,10.35
2022-08-22T08:58:43.315Z,8.15
2022-08-22T09:01:53.263Z,5.70
2022-08-22T09:04:55.692Z,5.38
2022-08-22T09:08:00.365Z,6.72
2022-08-22T09:11:09.762Z,7.53
2022-08-22T09:14:12.392Z,5.43
2022-08-22T09:17:16.568Z,5.88
2022-08-22T09:20:17.615Z,5.32
2022-08-22T09:23:36.655Z,5.47
2022-08-22T09:26:30.548Z,3.78
2022-08-22T09:29:54.962Z,6.03
2022-08-22T09:32:49.344Z,2.63
2022-08-22T09:35:42.564Z,6.60
2022-08-22T09:38:47.773Z,3.95
2022-08-22T09:41:42.920Z,2.97
2022-08-22T09:44:42.591Z,4.70
2022-08-22T09:47:35.200Z,2.63
2022-08-22T09:50:36.984Z,1.70
2022-08-22T09:53:41.234Z,2.50
2022-08-22T09:56:37.992Z,2.53
2022-08-22T09:59:34.780Z,3.50
2022-08-22T10:02:30.324Z,3.15
2022-08-22T10:05:35.183Z,4.45
2022-08-22T10:08:36.520Z,2.45
2022-08-22T10:11:28.779Z,3.45
2022-08-22T10:14:22.248Z,3.85
2022-08-22T10:17:16.975Z,3.67
2022-08-22T10:20:17.458Z,2.83
2022-08-22T10:23:14.743Z,2.28
2022-08-22T10:26:12.252Z,6.32
2022-08-22T10:29:18.038Z,3.28
2022-08-22T10:32:14.686Z,1.83
2022-08-22T10:35:12.380Z,3.13
2022-08-22T10:38:10.548Z,3.50
2022-08-22T10:41:09.384Z,2.90
2022-08-22T10:44:03.979Z,5.95
2022-08-22T10:46:56.225Z,3.40
2022-08-22T10:49:51.424Z,4.05
2022-08-22T10:52:46.641Z,4.97
2022-08-22T10:55:43.251Z,2.60
2022-08-22T10:58:35.476Z,4.07
2022-08-22T11:01:41.022Z,3.05
2022-08-22T11:04:42.260Z,3.30
2022-08-22T11:07:48.548Z,3.05
2022-08-22T11:10:47.728Z,3.55
2022-08-22T11:13:42.357Z,3.90
2022-08-22T11:16:42.004Z,2.47
2022-08-22T11:19:48.988Z,2.20
2022-08-22T11:22:44.704Z,3.53
2022-08-22T11:25:45.319Z,9.00
2022-08-22T11:29:13.717Z,4.40
2022-08-22T11:32:07.916Z,2.97
2022-08-22T11:35:00.368Z,3.70
2022-08-22T11:37:51.349Z,3.92
2022-08-22T11:40:53.565Z,3.03
2022-08-22T11:43:48.494Z,3.80
2022-08-22T11:46:38.400Z,2.78
2022-08-22T11:49:31.754Z,3.55
2022-08-22T11:52:32.215Z,3.65
2022-08-22T11:55:29.605Z,2.67
2022-08-22T11:58:28.757Z,5.80
2022-08-22T12:01:19.755Z,2.78
2022-08-22T12:04:13.196Z,2.58
2022-08-22T12:07:06.448Z,2.90
2022-08-22T12:09:59.264Z,4.45
2022-08-22T12:12:56.023Z,4.93
2022-08-22T12:15:53.870Z,2.30
2022-08-22T12:18:53.081Z,3.22
2022-08-22T12:21:50.290Z,3.42
2022-08-22T12:24:46.287Z,3.42
2022-08-22T12:27:55.333Z,3.30
2022-08-22T12:30:51.742Z,2.20
2022-08-22T12:33:54.825Z,2.78
2022-08-22T12:36:55.514Z,3.70
2022-08-22T12:40:08.627Z,3.17
2022-08-22T12:43:09.747Z,3.22
2022-08-22T12:46:16.364Z,4.57
2022-08-22T12:49:21.868Z,2.50
2022-08-22T12:52:17.633Z,4.65
2022-08-22T12:55:16.256Z,4.60
2022-08-22T12:58:12.068Z,3.97
2022-08-22T13:01:02.927Z,3.38
2022-08-22T13:03:52.771Z,4.50
2022-08-22T13:06:54.115Z,4.80
2022-08-22T13:09:48.451Z,8.07
2022-08-22T13:12:44.010Z,4.30
2022-08-22T13:15:35.979Z,5.72
2022-08-22T13:18:31.154Z,3.05
2022-08-22T13:21:24.015Z,13.68
2022-08-22T13:24:22.654Z,2.95
2022-08-22T13:27:30.297Z,4.32
2022-08-22T13:30:21.186Z,4.30
2022-08-22T13:33:12.560Z,2.97
2022-08-22T13:36:03.808Z,6.22
2022-08-22T13:38:56.180Z,3.03
2022-08-22T13:41:48.434Z,3.55
2022-08-22T13:44:39.979Z,3.70
2022-08-22T13:47:31.843Z,6.65
2022-08-22T13:50:24.745Z,6.03
2022-08-22T13:53:28.012Z,6.78
2022-08-22T13:56:20.494Z,4.55
2022-08-22T13:59:40.079Z,3.20
2022-08-22T14:02:37.994Z,3.83
2022-08-22T14:05:30.316Z,3.97
2022-08-22T14:08:21.130Z,4.70
2022-08-22T14:11:11.432Z,3.33
2022-08-22T14:14:03.755Z,3.47
2022-08-22T14:16:55.650Z,3.40
2022-08-22T14:19:58.857Z,4.82
2022-08-22T14:22:58.090Z,5.60
2022-08-22T14:25:49.057Z,4.50
2022-08-22T14:28:38.458Z,6.15
2022-08-22T14:31:28.025Z,3.03
2022-08-22T14:34:18.747Z,3.90
2022-08-22T14:37:12.901Z,8.18
2022-08-22T14:40:05.928Z,7.93
2022-08-22T14:42:57.449Z,3.40
2022-08-22T14:45:48.899Z,2.85
2022-08-22T14:48:40.742Z,2.80
2022-08-22T14:51:32.320Z,7.90
2022-08-22T14:54:28.875Z,5.80
2022-08-22T14:57:20.903Z,3.25
2022-08-22T15:00:12.147Z,3.25
2022-08-22T15:03:09.044Z,2.55
2022-08-22T15:05:59.685Z,5.07
2022-08-22T15:08:52.772Z,2.75
2022-08-22T15:11:42.436Z,3.67
2022-08-22T15:14:51.950Z,4.82
2022-08-22T15:18:05.049Z,3.13
2022-08-22T15:21:06.846Z,4.40
2022-08-22T15:24:00.460Z,3.72
2022-08-22T15:26:51.830Z,3.35
2022-08-22T15:29:55.513Z,3.88
2022-08-22T15:32:46.130Z,3.13
2022-08-22T15:35:38.824Z,4.45
2022-08-22T15:38:29.797Z,3.38
2022-08-22T15:41:31.265Z,4.35
2022-08-22T15:44:32.255Z,3.42
2022-08-22T15:47:31.525Z,4.07
2022-08-22T15:50:30.904Z,3.03
2022-08-22T15:53:21.663Z,3.83
2022-08-22T15:56:23.995Z,3.60
2022-08-22T15:59:22.995Z,3.95
2022-08-22T16:02:23.256Z,4.35
2022-08-22T16:05:24.068Z,5.05
2022-08-22T16:08:14.664Z,5.75
2022-08-22T16:11:21.258Z,4.63
2022-08-22T16:14:22.994Z,4.53
2022-08-22T16:17:41.029Z,2.85
2022-08-22T16:20:43.735Z,3.70
2022-08-22T16:23:53.660Z,7.18
2022-08-22T16:26:43.107Z,3.13
2022-08-22T16:29:41.301Z,4.20
2022-08-22T16:32:30.591Z,4.47
2022-08-22T16:35:34.376Z,2.85
2022-08-22T16:38:27.575Z,2.40
2022-08-22T16:41:27.244Z,3.78
2022-08-22T16:44:24.334Z,3.55
2022-08-22T16:47:16.335Z,3.35
2022-08-22T16:50:09.061Z,2.60
2022-08-22T16:53:00.221Z,5.30
2022-08-22T16:56:03.917Z,2.85
2022-08-22T16:59:23.675Z,3.05
2022-08-22T17:02:21.051Z,3.58
2022-08-22T17:05:18.534Z,4.78
2022-08-22T17:08:22.376Z,2.67
2022-08-22T17:11:18.661Z,2.75
2022-08-22T17:14:14.196Z,2.08
2022-08-22T17:17:14.900Z,4.30
2022-08-22T17:20:13.449Z,2.75
2022-08-22T17:23:09.173Z,3.45
2022-08-22T17:26:02.596Z,4.72
2022-08-22T17:28:57.364Z,2.42
2022-08-22T17:31:51.528Z,3.30
2022-08-22T17:34:41.289Z,3.28
2022-08-22T17:37:38.507Z,2.92
2022-08-22T17:40:38.922Z,2.73
2022-08-22T17:43:32.788Z,2.40
2022-08-22T17:46:44.455Z,3.50
2022-08-22T17:49:47.345Z,3.90
2022-08-22T17:52:42.546Z,6.60
2022-08-22T17:55:34.023Z,3.33
2022-08-22T17:58:37.924Z,3.73
2022-08-22T18:01:42.620Z,2.73
2022-08-22T18:04:35.032Z,3.40
2022-08-22T18:07:30.038Z,2.63
2022-08-22T18:10:31.190Z,3.00
2022-08-22T18:13:22.938Z,2.40
2022-08-22T18:16:15.566Z,6.90
2022-08-22T18:19:08.259Z,3.00
2022-08-22T18:21:59.568Z,3.43
2022-08-22T18:24:51.603Z,3.40
2022-08-22T18:27:48.679Z,3.00
2022-08-22T18:30:40.132Z,2.43
2022-08-22T18:33:32.944Z,3.40
2022-08-22T18:36:24.482Z,2.30
2022-08-22T18:39:17.271Z,2.47
2022-08-22T18:42:10.594Z,2.40
2022-08-22T18:45:00.936Z,4.07
2022-08-22T18:47:58.504Z,5.63
2022-08-22T18:50:47.788Z,3.77
2022-08-22T18:53:41.220Z,1.80
2022-08-22T18:56:41.392Z,3.80
2022-08-22T18:59:45.928Z,3.13
2022-08-22T19:02:55.853Z,2.60
2022-08-22T19:05:53.088Z,5.97
2022-08-22T19:08:57.724Z,2.43
2022-08-22T19:11:52.436Z,4.27
2022-08-22T19:14:56.153Z,3.37
2022-08-22T19:17:59.860Z,3.30
2022-08-22T19:21:26.261Z,5.00
2022-08-22T19:24:30.001Z,3.30
2022-08-22T19:27:31.405Z,3.13
2022-08-22T19:30:41.552Z,28.77
2022-08-22T19:33:40.272Z,4.33
2022-08-22T19:36:33.303Z,1.90
2022-08-22T19:39:37.021Z,2.33
2022-08-22T19:42:35.153Z,2.30
2022-08-22T19:45:28.739Z,3.57
2022-08-22T19:48:17.652Z,5.67
2022-08-22T19:51:11.355Z,2.83
2022-08-22T19:54:16.418Z,4.10
2022-08-22T19:57:10.166Z,5.53
2022-08-22T20:00:04.024Z,4.23
2022-08-22T20:02:57.369Z,2.30
2022-08-22T20:05:57.164Z,2.37
2022-08-22T20:08:52.343Z,6.30
2022-08-22T20:11:43.996Z,2.50
2022-08-22T20:14:34.332Z,3.53
2022-08-22T20:20:35.560Z,3.00
2022-08-22T20:23:28.386Z,3.60
2022-08-22T20:26:17.536Z,5.43
2022-08-22T20:29:08.067Z,4.40
2022-08-22T20:31:58.924Z,2.23
2022-08-22T20:34:48.270Z,3.47
2022-08-22T20:38:05.186Z,3.00
2022-08-22T20:40:56.106Z,5.77
2022-08-22T20:43:48.624Z,3.07
2022-08-22T20:46:46.143Z,7.13
2022-08-22T20:49:37.353Z,2.10
2022-08-22T20:52:29.104Z,4.03
2022-08-22T20:55:20.066Z,2.13
2022-08-22T20:58:21.860Z,5.33
2022-08-22T21:01:13.219Z,4.33
2022-08-22T21:04:05.046Z,3.97
2022-08-22T21:07:00.088Z,6.80
2022-08-22T21:10:12.623Z,3.60
2022-08-22T21:13:05.997Z,4.33
2022-08-22T21:15:58.276Z,3.00
2022-08-22T21:18:48.031Z,3.60
2022-08-22T21:21:36.879Z,3.87
2022-08-22T21:24:25.736Z,4.50
2022-08-22T21:27:15.246Z,3.73
2022-08-22T21:30:07.359Z,4.10
2022-08-22T21:32:58.068Z,3.13
2022-08-22T21:35:55.888Z,3.43
2022-08-22T21:38:48.283Z,5.63
2022-08-22T21:41:39.930Z,3.30
2022-08-22T21:44:30.188Z,4.40
2022-08-22T21:47:30.436Z,3.30
2022-08-22T21:50:31.641Z,2.83
2022-08-22T21:53:27.615Z,2.13
2022-08-22T21:56:17.291Z,3.03
2022-08-22T21:59:24.945Z,3.27
2022-08-22T22:02:31.483Z,2.80
2022-08-22T22:05:25.761Z,3.00
2022-08-22T22:08:15.985Z,2.97
2022-08-22T22:11:08.352Z,3.00
2022-08-22T22:13:57.472Z,4.57
2022-08-22T22:16:46.313Z,2.80
2022-08-22T22:19:35.624Z,2.47
2022-08-22T22:22:24.460Z,2.93
2022-08-22T22:25:39.023Z,2.60
2022-08-22T22:28:25.645Z,5.13
2022-08-22T22:31:14.723Z,3.57
2022-08-22T22:34:03.587Z,3.30
2022-08-22T22:36:52.450Z,3.10
2022-08-22T22:39:41.350Z,3.53
2022-08-22T22:42:32.273Z,4.17
2022-08-22T22:45:21.116Z,3.57
2022-08-22T22:48:10.052Z,4.00
2022-08-22T22:50:58.992Z,3.40
2022-08-22T22:53:49.553Z,3.67
2022-08-22T22:56:38.385Z,4.27
2022-08-22T22:59:28.647Z,2.90
2022-08-22T23:02:18.901Z,3.97
2022-08-22T23:05:08.658Z,4.23
2022-08-22T23:07:59.280Z,3.57
2022-08-22T23:10:48.372Z,3.70
2022-08-22T23:13:37.230Z,2.53
2022-08-22T23:16:33.991Z,5.60
2022-08-22T23:19:26.627Z,2.90
2022-08-22T23:22:15.646Z,6.63
2022-08-22T23:25:04.553Z,5.73
2022-08-22T23:27:53.596Z,3.80
2022-08-22T23:30:43.009Z,4.47
2022-08-22T23:33:35.139Z,2.97
2022-08-22T23:36:24.928Z,5.10
2022-08-22T23:39:14.165Z,3.17
2022-08-22T23:42:03.519Z,2.67
2022-08-22T23:44:52.456Z,2.30
2022-08-22T23:47:41.321Z,2.83
2022-08-22T23:50:31.486Z,3.50
2022-08-22T23:53:20.384Z,3.10
2022-08-22T23:56:19.432Z,7.33
2022-08-22T23:59:10.511Z,5.07
